sensor_id;sensor_type;location;lat;lon;timestamp;temperature;humidity
3752;DHT22;50827;47.014;7.652;2023-02-28T00:00:21;0.60;99.90
3752;DHT22;50827;47.014;7.652;2023-02-28T00:02:48;0.60;99.90
3752;DHT22;50827;47.014;7.652;2023-02-28T00:05:17;0.60;99.90
3752;DHT22;50827;47.014;7.652;2023-02-28T00:07:44;0.60;99.90
3752;DHT22;50827;47.014;7.652;2023-02-28T00:10:14;0.60;99.90
3752;DHT22;50827;47.014;7.652;2023-02-28T00:12:45;0.60;99.90
3752;DHT22;50827;47.014;7.652;2023-02-28T00:15:12;0.60;99.90
3752;DHT22;50827;47.014;7.652;2023-02-28T00:17:39;0.70;99.90
3752;DHT22;50827;47.014;7.652;2023-02-28T00:20:06;0.60;99.90
3752;DHT22;50827;47.014;7.652;2023-02-28T00:22:40;0.60;99.90
3752;DHT22;50827;47.014;7.652;2023-02-28T00:25:08;0.70;99.90
3752;DHT22;50827;47.014;7.652;2023-02-28T00:27:36;0.70;99.90
3752;DHT22;50827;47.014;7.652;2023-02-28T00:30:04;0.70;99.90
3752;DHT22;50827;47.014;7.652;2023-02-28T00:32:32;0.70;99.90
3752;DHT22;50827;47.014;7.652;2023-02-28T00:34:59;0.70;99.90
3752;DHT22;50827;47.014;7.652;2023-02-28T00:37:25;0.70;99.90
3752;DHT22;50827;47.014;7.652;2023-02-28T00:39:52;0.80;99.90
3752;DHT22;50827;47.014;7.652;2023-02-28T00:42:19;0.80;99.90
3752;DHT22;50827;47.014;7.652;2023-02-28T00:44:45;0.80;99.90
3752;DHT22;50827;47.014;7.652;2023-02-28T00:47:12;0.80;99.90
3752;DHT22;50827;47.014;7.652;2023-02-28T00:49:39;0.80;99.90
3752;DHT22;50827;47.014;7.652;2023-02-28T00:52:05;0.80;99.90
3752;DHT22;50827;47.014;7.652;2023-02-28T00:54:32;0.90;99.90
3752;DHT22;50827;47.014;7.652;2023-02-28T00:56:59;0.90;99.90
3752;DHT22;50827;47.014;7.652;2023-02-28T00:59:26;0.80;99.90
3752;DHT22;50827;47.014;7.652;2023-02-28T01:01:52;0.80;99.90
3752;DHT22;50827;47.014;7.652;2023-02-28T01:04:19;0.90;99.90
3752;DHT22;50827;47.014;7.652;2023-02-28T01:06:46;1.00;99.90
3752;DHT22;50827;47.014;7.652;2023-02-28T01:09:13;1.00;99.90
3752;DHT22;50827;47.014;7.652;2023-02-28T01:11:39;0.90;99.90
3752;DHT22;50827;47.014;7.652;2023-02-28T01:14:08;0.90;99.90
3752;DHT22;50827;47.014;7.652;2023-02-28T01:16:35;0.90;99.90
3752;DHT22;50827;47.014;7.652;2023-02-28T01:19:01;0.90;99.90
3752;DHT22;50827;47.014;7.652;2023-02-28T01:21:28;0.80;99.90
3752;DHT22;50827;47.014;7.652;2023-02-28T01:23:57;0.80;99.90
3752;DHT22;50827;47.014;7.652;2023-02-28T01:26:24;0.80;99.90
3752;DHT22;50827;47.014;7.652;2023-02-28T01:28:52;0.70;99.90
3752;DHT22;50827;47.014;7.652;2023-02-28T01:31:20;0.70;99.90
3752;DHT22;50827;47.014;7.652;2023-02-28T01:33:47;0.80;99.90
3752;DHT22;50827;47.014;7.652;2023-02-28T01:36:17;0.80;99.90
3752;DHT22;50827;47.014;7.652;2023-02-28T01:38:44;0.60;99.90
3752;DHT22;50827;47.014;7.652;2023-02-28T01:41:20;0.70;99.90
3752;DHT22;50827;47.014;7.652;2023-02-28T01:46:14;0.80;99.90
3752;DHT22;50827;47.014;7.652;2023-02-28T01:51:22;0.90;99.90
3752;DHT22;50827;47.014;7.652;2023-02-28T01:53:56;1.00;99.90
3752;DHT22;50827;47.014;7.652;2023-02-28T01:56:29;0.90;99.90
3752;DHT22;50827;47.014;7.652;2023-02-28T01:58:56;0.90;99.90
3752;DHT22;50827;47.014;7.652;2023-02-28T02:01:25;0.90;99.90
3752;DHT22;50827;47.014;7.652;2023-02-28T02:03:58;0.90;99.90
3752;DHT22;50827;47.014;7.652;2023-02-28T02:06:30;1.00;99.90
3752;DHT22;50827;47.014;7.652;2023-02-28T02:09:00;0.90;99.90
3752;DHT22;50827;47.014;7.652;2023-02-28T02:11:27;0.90;99.90
3752;DHT22;50827;47.014;7.652;2023-02-28T02:17:22;1.00;99.90
3752;DHT22;50827;47.014;7.652;2023-02-28T02:20:13;1.00;99.90
3752;DHT22;50827;47.014;7.652;2023-02-28T02:31:22;1.20;99.90
3752;DHT22;50827;47.014;7.652;2023-02-28T02:34:05;1.20;99.90
3752;DHT22;50827;47.014;7.652;2023-02-28T02:36:50;1.20;99.90
3752;DHT22;50827;47.014;7.652;2023-02-28T02:42:01;1.20;99.90
3752;DHT22;50827;47.014;7.652;2023-02-28T02:44:40;1.20;99.90
3752;DHT22;50827;47.014;7.652;2023-02-28T02:47:14;1.20;99.90
3752;DHT22;50827;47.014;7.652;2023-02-28T02:49:46;1.20;99.90
3752;DHT22;50827;47.014;7.652;2023-02-28T02:52:15;1.20;99.90
3752;DHT22;50827;47.014;7.652;2023-02-28T02:54:46;1.20;99.90
3752;DHT22;50827;47.014;7.652;2023-02-28T02:57:22;1.30;99.90
3752;DHT22;50827;47.014;7.652;2023-02-28T02:59:51;1.20;99.90
3752;DHT22;50827;47.014;7.652;2023-02-28T03:02:21;1.10;99.90
3752;DHT22;50827;47.014;7.652;2023-02-28T03:04:52;1.10;99.90
3752;DHT22;50827;47.014;7.652;2023-02-28T03:07:20;1.00;99.90
3752;DHT22;50827;47.014;7.652;2023-02-28T03:09:53;1.10;99.90
3752;DHT22;50827;47.014;7.652;2023-02-28T03:12:44;1.00;99.90
3752;DHT22;50827;47.014;7.652;2023-02-28T03:15:29;1.00;99.90
3752;DHT22;50827;47.014;7.652;2023-02-28T03:18:21;0.80;99.90
3752;DHT22;50827;47.014;7.652;2023-02-28T03:21:23;0.80;99.90
3752;DHT22;50827;47.014;7.652;2023-02-28T03:24:10;0.90;99.90
3752;DHT22;50827;47.014;7.652;2023-02-28T03:26:42;0.90;99.90
3752;DHT22;50827;47.014;7.652;2023-02-28T03:29:23;1.00;99.90
3752;DHT22;50827;47.014;7.652;2023-02-28T03:32:08;1.00;99.90
3752;DHT22;50827;47.014;7.652;2023-02-28T03:34:48;1.00;99.90
3752;DHT22;50827;47.014;7.652;2023-02-28T03:37:20;0.90;99.90
3752;DHT22;50827;47.014;7.652;2023-02-28T03:40:00;1.00;99.90
3752;DHT22;50827;47.014;7.652;2023-02-28T03:42:29;0.90;99.90
3752;DHT22;50827;47.014;7.652;2023-02-28T03:45:01;0.90;99.90
3752;DHT22;50827;47.014;7.652;2023-02-28T03:52:51;0.90;99.90
3752;DHT22;50827;47.014;7.652;2023-02-28T03:55:20;0.80;99.90
3752;DHT22;50827;47.014;7.652;2023-02-28T04:00:29;0.80;99.90
3752;DHT22;50827;47.014;7.652;2023-02-28T04:02:56;0.70;99.90
3752;DHT22;50827;47.014;7.652;2023-02-28T04:05:24;0.70;99.90
3752;DHT22;50827;47.014;7.652;2023-02-28T04:07:52;0.80;99.90
3752;DHT22;50827;47.014;7.652;2023-02-28T04:10:19;0.80;99.90
3752;DHT22;50827;47.014;7.652;2023-02-28T04:12:46;0.80;99.90
3752;DHT22;50827;47.014;7.652;2023-02-28T04:15:12;0.80;99.90
3752;DHT22;50827;47.014;7.652;2023-02-28T04:17:39;0.80;99.90
3752;DHT22;50827;47.014;7.652;2023-02-28T04:20:06;0.80;99.90
3752;DHT22;50827;47.014;7.652;2023-02-28T04:22:36;0.80;99.90
3752;DHT22;50827;47.014;7.652;2023-02-28T04:25:04;0.70;99.90
3752;DHT22;50827;47.014;7.652;2023-02-28T04:27:32;0.60;99.90
3752;DHT22;50827;47.014;7.652;2023-02-28T04:29:58;0.70;99.90
3752;DHT22;50827;47.014;7.652;2023-02-28T04:32:25;0.60;99.90
3752;DHT22;50827;47.014;7.652;2023-02-28T04:34:52;0.60;99.90
3752;DHT22;50827;47.014;7.652;2023-02-28T04:37:19;0.50;99.90
3752;DHT22;50827;47.014;7.652;2023-02-28T04:39:46;0.50;99.90
3752;DHT22;50827;47.014;7.652;2023-02-28T04:42:13;0.50;99.90
3752;DHT22;50827;47.014;7.652;2023-02-28T04:44:40;0.30;99.90
3752;DHT22;50827;47.014;7.652;2023-02-28T04:47:07;0.40;99.90
3752;DHT22;50827;47.014;7.652;2023-02-28T04:49:34;0.50;99.90
3752;DHT22;50827;47.014;7.652;2023-02-28T04:52:01;0.50;99.90
3752;DHT22;50827;47.014;7.652;2023-02-28T04:54:28;0.50;99.90
3752;DHT22;50827;47.014;7.652;2023-02-28T04:56:55;0.40;99.90
3752;DHT22;50827;47.014;7.652;2023-02-28T04:59:22;0.40;99.90
3752;DHT22;50827;47.014;7.652;2023-02-28T05:01:49;0.50;99.90
3752;DHT22;50827;47.014;7.652;2023-02-28T05:04:16;0.50;99.90
3752;DHT22;50827;47.014;7.652;2023-02-28T05:06:44;0.50;99.90
3752;DHT22;50827;47.014;7.652;2023-02-28T05:09:10;0.50;99.90
3752;DHT22;50827;47.014;7.652;2023-02-28T05:11:38;0.50;99.90
3752;DHT22;50827;47.014;7.652;2023-02-28T05:14:11;0.40;99.90
3752;DHT22;50827;47.014;7.652;2023-02-28T05:16:38;0.40;99.90
3752;DHT22;50827;47.014;7.652;2023-02-28T05:19:04;0.50;99.90
3752;DHT22;50827;47.014;7.652;2023-02-28T05:21:32;0.40;99.90
3752;DHT22;50827;47.014;7.652;2023-02-28T05:24:05;0.40;99.90
3752;DHT22;50827;47.014;7.652;2023-02-28T05:26:41;0.50;99.90
3752;DHT22;50827;47.014;7.652;2023-02-28T05:29:08;0.50;99.90
3752;DHT22;50827;47.014;7.652;2023-02-28T05:31:35;0.50;99.90
3752;DHT22;50827;47.014;7.652;2023-02-28T05:34:02;0.50;99.90
3752;DHT22;50827;47.014;7.652;2023-02-28T05:36:30;0.50;99.90
3752;DHT22;50827;47.014;7.652;2023-02-28T05:38:57;0.50;99.90
3752;DHT22;50827;47.014;7.652;2023-02-28T05:41:24;0.50;99.90
3752;DHT22;50827;47.014;7.652;2023-02-28T05:43:51;0.50;99.90
3752;DHT22;50827;47.014;7.652;2023-02-28T05:46:18;0.50;99.90
3752;DHT22;50827;47.014;7.652;2023-02-28T05:48:46;0.50;99.90
3752;DHT22;50827;47.014;7.652;2023-02-28T05:51:14;0.50;99.90
3752;DHT22;50827;47.014;7.652;2023-02-28T05:53:40;0.50;99.90
3752;DHT22;50827;47.014;7.652;2023-02-28T05:56:07;0.50;99.90
3752;DHT22;50827;47.014;7.652;2023-02-28T05:58:34;0.50;99.90
3752;DHT22;50827;47.014;7.652;2023-02-28T06:04:01;0.60;99.90
3752;DHT22;50827;47.014;7.652;2023-02-28T06:06:29;0.60;99.90
3752;DHT22;50827;47.014;7.652;2023-02-28T06:09:06;0.60;99.90
3752;DHT22;50827;47.014;7.652;2023-02-28T06:11:33;0.60;99.90
3752;DHT22;50827;47.014;7.652;2023-02-28T06:14:00;0.60;99.90
3752;DHT22;50827;47.014;7.652;2023-02-28T06:16:29;0.60;99.90
3752;DHT22;50827;47.014;7.652;2023-02-28T06:19:00;0.60;99.90
3752;DHT22;50827;47.014;7.652;2023-02-28T06:21:28;0.60;99.90
3752;DHT22;50827;47.014;7.652;2023-02-28T06:23:57;0.50;99.90
3752;DHT22;50827;47.014;7.652;2023-02-28T06:26:24;0.50;99.90
3752;DHT22;50827;47.014;7.652;2023-02-28T06:28:51;0.60;99.90
3752;DHT22;50827;47.014;7.652;2023-02-28T06:31:18;0.60;99.90
3752;DHT22;50827;47.014;7.652;2023-02-28T06:33:46;0.60;99.90
3752;DHT22;50827;47.014;7.652;2023-02-28T06:36:14;0.50;99.90
3752;DHT22;50827;47.014;7.652;2023-02-28T06:38:42;0.50;99.90
3752;DHT22;50827;47.014;7.652;2023-02-28T06:41:09;0.40;99.90
3752;DHT22;50827;47.014;7.652;2023-02-28T06:43:42;0.50;99.90
3752;DHT22;50827;47.014;7.652;2023-02-28T06:46:12;0.40;99.90
3752;DHT22;50827;47.014;7.652;2023-02-28T06:48:40;0.30;99.90
3752;DHT22;50827;47.014;7.652;2023-02-28T06:51:16;0.40;99.90
3752;DHT22;50827;47.014;7.652;2023-02-28T06:53:43;0.40;99.90
3752;DHT22;50827;47.014;7.652;2023-02-28T06:56:13;0.30;99.90
3752;DHT22;50827;47.014;7.652;2023-02-28T06:58:40;0.40;99.90
3752;DHT22;50827;47.014;7.652;2023-02-28T07:01:08;0.40;99.90
3752;DHT22;50827;47.014;7.652;2023-02-28T07:03:35;0.40;99.90
3752;DHT22;50827;47.014;7.652;2023-02-28T07:06:02;0.50;99.90
3752;DHT22;50827;47.014;7.652;2023-02-28T07:08:30;0.40;99.90
3752;DHT22;50827;47.014;7.652;2023-02-28T07:10:58;0.50;99.90
3752;DHT22;50827;47.014;7.652;2023-02-28T07:13:25;0.50;99.90
3752;DHT22;50827;47.014;7.652;2023-02-28T07:16:18;0.40;99.90
3752;DHT22;50827;47.014;7.652;2023-02-28T07:18:45;0.40;99.90
3752;DHT22;50827;47.014;7.652;2023-02-28T07:21:12;0.40;99.90
3752;DHT22;50827;47.014;7.652;2023-02-28T07:23:39;0.40;99.90
3752;DHT22;50827;47.014;7.652;2023-02-28T07:26:07;0.40;99.90
3752;DHT22;50827;47.014;7.652;2023-02-28T07:28:37;0.40;99.90
3752;DHT22;50827;47.014;7.652;2023-02-28T07:31:05;0.40;99.90
3752;DHT22;50827;47.014;7.652;2023-02-28T07:33:33;0.40;99.90
3752;DHT22;50827;47.014;7.652;2023-02-28T07:36:09;0.40;99.90
3752;DHT22;50827;47.014;7.652;2023-02-28T07:38:41;0.50;99.90
3752;DHT22;50827;47.014;7.652;2023-02-28T07:41:10;0.50;99.90
3752;DHT22;50827;47.014;7.652;2023-02-28T07:43:37;0.40;99.90
3752;DHT22;50827;47.014;7.652;2023-02-28T07:46:07;0.40;99.90
3752;DHT22;50827;47.014;7.652;2023-02-28T07:48:35;0.30;99.90
3752;DHT22;50827;47.014;7.652;2023-02-28T07:51:01;0.40;99.90
3752;DHT22;50827;47.014;7.652;2023-02-28T07:53:29;0.40;99.90
3752;DHT22;50827;47.014;7.652;2023-02-28T07:56:00;0.40;99.90
3752;DHT22;50827;47.014;7.652;2023-02-28T07:58:28;0.50;99.90
3752;DHT22;50827;47.014;7.652;2023-02-28T08:00:55;0.50;99.90
3752;DHT22;50827;47.014;7.652;2023-02-28T08:03:23;0.60;99.90
3752;DHT22;50827;47.014;7.652;2023-02-28T08:05:51;0.60;99.90
3752;DHT22;50827;47.014;7.652;2023-02-28T08:08:19;0.50;99.90
3752;DHT22;50827;47.014;7.652;2023-02-28T08:10:45;0.50;99.90
3752;DHT22;50827;47.014;7.652;2023-02-28T08:13:12;0.60;99.90
3752;DHT22;50827;47.014;7.652;2023-02-28T08:15:41;0.60;99.90
3752;DHT22;50827;47.014;7.652;2023-02-28T08:18:08;0.60;99.90
3752;DHT22;50827;47.014;7.652;2023-02-28T08:20:35;0.60;99.90
3752;DHT22;50827;47.014;7.652;2023-02-28T08:23:01;0.70;99.90
3752;DHT22;50827;47.014;7.652;2023-02-28T08:25:28;0.80;99.90
3752;DHT22;50827;47.014;7.652;2023-02-28T08:27:55;0.80;99.90
3752;DHT22;50827;47.014;7.652;2023-02-28T08:30:21;0.90;99.90
3752;DHT22;50827;47.014;7.652;2023-02-28T08:32:48;0.90;99.90
3752;DHT22;50827;47.014;7.652;2023-02-28T08:35:15;0.90;99.90
3752;DHT22;50827;47.014;7.652;2023-02-28T08:37:41;0.90;99.90
3752;DHT22;50827;47.014;7.652;2023-02-28T08:40:09;0.90;99.90
3752;DHT22;50827;47.014;7.652;2023-02-28T08:42:36;0.90;99.90
3752;DHT22;50827;47.014;7.652;2023-02-28T08:45:02;0.90;99.90
3752;DHT22;50827;47.014;7.652;2023-02-28T08:47:29;1.00;99.90
3752;DHT22;50827;47.014;7.652;2023-02-28T08:49:56;1.00;99.90
3752;DHT22;50827;47.014;7.652;2023-02-28T08:52:22;1.00;99.90
3752;DHT22;50827;47.014;7.652;2023-02-28T08:54:49;1.10;99.90
3752;DHT22;50827;47.014;7.652;2023-02-28T08:57:16;1.20;99.90
3752;DHT22;50827;47.014;7.652;2023-02-28T08:59:42;1.20;99.90
3752;DHT22;50827;47.014;7.652;2023-02-28T09:02:13;1.30;99.90
3752;DHT22;50827;47.014;7.652;2023-02-28T09:04:40;1.30;99.90
3752;DHT22;50827;47.014;7.652;2023-02-28T09:07:07;1.30;99.90
3752;DHT22;50827;47.014;7.652;2023-02-28T09:09:34;1.20;99.90
3752;DHT22;50827;47.014;7.652;2023-02-28T09:12:01;1.20;99.90
3752;DHT22;50827;47.014;7.652;2023-02-28T09:14:28;1.20;99.90
3752;DHT22;50827;47.014;7.652;2023-02-28T09:16:55;1.20;99.90
3752;DHT22;50827;47.014;7.652;2023-02-28T09:19:21;1.30;99.90
3752;DHT22;50827;47.014;7.652;2023-02-28T09:21:48;1.30;99.90
3752;DHT22;50827;47.014;7.652;2023-02-28T09:24:15;1.20;99.90
3752;DHT22;50827;47.014;7.652;2023-02-28T09:26:42;1.30;99.90
3752;DHT22;50827;47.014;7.652;2023-02-28T09:29:28;1.20;99.90
3752;DHT22;50827;47.014;7.652;2023-02-28T09:31:55;1.30;99.90
3752;DHT22;50827;47.014;7.652;2023-02-28T09:34:26;1.40;99.90
3752;DHT22;50827;47.014;7.652;2023-02-28T09:36:53;1.30;99.90
3752;DHT22;50827;47.014;7.652;2023-02-28T09:39:22;1.20;99.90
3752;DHT22;50827;47.014;7.652;2023-02-28T09:41:51;1.30;99.90
3752;DHT22;50827;47.014;7.652;2023-02-28T09:44:41;1.20;99.90
3752;DHT22;50827;47.014;7.652;2023-02-28T09:47:34;1.20;99.90
3752;DHT22;50827;47.014;7.652;2023-02-28T09:52:56;1.30;99.90
3752;DHT22;50827;47.014;7.652;2023-02-28T09:55:39;1.30;99.90
3752;DHT22;50827;47.014;7.652;2023-02-28T09:58:28;1.40;99.90
3752;DHT22;50827;47.014;7.652;2023-02-28T10:01:09;1.50;99.90
3752;DHT22;50827;47.014;7.652;2023-02-28T10:03:45;1.40;99.90
3752;DHT22;50827;47.014;7.652;2023-02-28T10:06:26;1.30;99.90
3752;DHT22;50827;47.014;7.652;2023-02-28T10:09:21;1.40;99.90
3752;DHT22;50827;47.014;7.652;2023-02-28T10:11:54;1.40;99.90
3752;DHT22;50827;47.014;7.652;2023-02-28T10:14:26;1.60;99.90
3752;DHT22;50827;47.014;7.652;2023-02-28T10:22:27;1.50;99.90
3752;DHT22;50827;47.014;7.652;2023-02-28T10:24:57;1.50;99.90
3752;DHT22;50827;47.014;7.652;2023-02-28T10:27:33;1.50;99.90
3752;DHT22;50827;47.014;7.652;2023-02-28T10:30:02;1.60;99.90
3752;DHT22;50827;47.014;7.652;2023-02-28T10:32:34;1.50;99.90
3752;DHT22;50827;47.014;7.652;2023-02-28T10:35:10;1.60;99.90
3752;DHT22;50827;47.014;7.652;2023-02-28T10:37:45;1.70;99.90
3752;DHT22;50827;47.014;7.652;2023-02-28T10:43:12;1.90;99.90
3752;DHT22;50827;47.014;7.652;2023-02-28T10:45:58;1.90;99.90
3752;DHT22;50827;47.014;7.652;2023-02-28T10:48:30;2.00;99.90
3752;DHT22;50827;47.014;7.652;2023-02-28T10:50:59;1.90;99.90
3752;DHT22;50827;47.014;7.652;2023-02-28T10:53:45;1.90;99.90
3752;DHT22;50827;47.014;7.652;2023-02-28T10:56:27;1.90;99.90
3752;DHT22;50827;47.014;7.652;2023-02-28T11:01:36;2.00;99.90
3752;DHT22;50827;47.014;7.652;2023-02-28T11:07:00;2.10;99.90
3752;DHT22;50827;47.014;7.652;2023-02-28T11:09:39;2.00;99.90
3752;DHT22;50827;47.014;7.652;2023-02-28T11:12:19;2.00;99.90
3752;DHT22;50827;47.014;7.652;2023-02-28T11:14:49;1.90;99.90
3752;DHT22;50827;47.014;7.652;2023-02-28T11:17:23;1.80;99.90
3752;DHT22;50827;47.014;7.652;2023-02-28T11:19:53;1.90;99.90
3752;DHT22;50827;47.014;7.652;2023-02-28T11:22:26;2.00;99.90
3752;DHT22;50827;47.014;7.652;2023-02-28T11:25:15;2.00;99.90
3752;DHT22;50827;47.014;7.652;2023-02-28T11:27:46;1.90;99.90
3752;DHT22;50827;47.014;7.652;2023-02-28T11:30:28;2.00;99.90
3752;DHT22;50827;47.014;7.652;2023-02-28T11:32:56;2.00;99.90
3752;DHT22;50827;47.014;7.652;2023-02-28T11:35:30;1.90;99.90
3752;DHT22;50827;47.014;7.652;2023-02-28T11:37:57;1.90;99.90
3752;DHT22;50827;47.014;7.652;2023-02-28T11:46:37;2.00;99.90
3752;DHT22;50827;47.014;7.652;2023-02-28T11:51:54;2.00;99.90
3752;DHT22;50827;47.014;7.652;2023-02-28T11:57:53;2.00;99.90
3752;DHT22;50827;47.014;7.652;2023-02-28T12:03:26;2.00;99.90
3752;DHT22;50827;47.014;7.652;2023-02-28T12:06:10;2.10;99.90
3752;DHT22;50827;47.014;7.652;2023-02-28T12:08:55;2.10;99.90
3752;DHT22;50827;47.014;7.652;2023-02-28T12:27:36;2.30;99.90
3752;DHT22;50827;47.014;7.652;2023-02-28T12:32:53;2.50;99.90
3752;DHT22;50827;47.014;7.652;2023-02-28T12:35:26;2.40;99.90
3752;DHT22;50827;47.014;7.652;2023-02-28T12:38:12;2.40;99.90
3752;DHT22;50827;47.014;7.652;2023-02-28T12:40:55;2.40;99.90
3752;DHT22;50827;47.014;7.652;2023-02-28T12:43:27;2.30;99.90
3752;DHT22;50827;47.014;7.652;2023-02-28T12:46:08;2.40;99.90
3752;DHT22;50827;47.014;7.652;2023-02-28T12:49:02;2.40;99.90
3752;DHT22;50827;47.014;7.652;2023-02-28T12:51:26;2.50;99.90
3752;DHT22;50827;47.014;7.652;2023-02-28T13:00:19;2.70;99.90
3752;DHT22;50827;47.014;7.652;2023-02-28T13:03:10;2.80;99.90
3752;DHT22;50827;47.014;7.652;2023-02-28T13:09:00;2.80;99.90
3752;DHT22;50827;47.014;7.652;2023-02-28T13:11:48;2.80;99.90
3752;DHT22;50827;47.014;7.652;2023-02-28T13:14:29;2.90;99.90
3752;DHT22;50827;47.014;7.652;2023-02-28T13:19:42;2.80;99.90
3752;DHT22;50827;47.014;7.652;2023-02-28T13:22:38;2.90;99.90
3752;DHT22;50827;47.014;7.652;2023-02-28T13:28:09;2.80;99.90
3752;DHT22;50827;47.014;7.652;2023-02-28T13:33:36;2.80;99.90
3752;DHT22;50827;47.014;7.652;2023-02-28T13:36:30;2.90;99.90
3752;DHT22;50827;47.014;7.652;2023-02-28T13:39:03;2.70;99.90
3752;DHT22;50827;47.014;7.652;2023-02-28T13:41:49;2.80;99.90
3752;DHT22;50827;47.014;7.652;2023-02-28T13:44:23;2.70;99.90
3752;DHT22;50827;47.014;7.652;2023-02-28T13:54:43;2.60;99.90
3752;DHT22;50827;47.014;7.652;2023-02-28T13:57:42;2.60;99.90
3752;DHT22;50827;47.014;7.652;2023-02-28T14:00:45;2.40;99.90
3752;DHT22;50827;47.014;7.652;2023-02-28T14:06:33;2.30;99.90
3752;DHT22;50827;47.014;7.652;2023-02-28T14:09:16;2.30;99.90
3752;DHT22;50827;47.014;7.652;2023-02-28T14:11:45;2.30;99.90
3752;DHT22;50827;47.014;7.652;2023-02-28T14:17:06;2.10;99.90
3752;DHT22;50827;47.014;7.652;2023-02-28T14:19:37;2.20;99.90
3752;DHT22;50827;47.014;7.652;2023-02-28T14:25:10;2.30;99.90
3752;DHT22;50827;47.014;7.652;2023-02-28T14:27:48;2.30;99.90
3752;DHT22;50827;47.014;7.652;2023-02-28T14:33:30;2.40;99.90
3752;DHT22;50827;47.014;7.652;2023-02-28T14:36:26;2.50;99.90
3752;DHT22;50827;47.014;7.652;2023-02-28T14:39:01;2.60;99.90
3752;DHT22;50827;47.014;7.652;2023-02-28T14:41:36;2.30;99.90
3752;DHT22;50827;47.014;7.652;2023-02-28T14:44:15;2.30;99.90
3752;DHT22;50827;47.014;7.652;2023-02-28T14:46:43;2.10;99.90
3752;DHT22;50827;47.014;7.652;2023-02-28T14:49:28;2.00;99.90
3752;DHT22;50827;47.014;7.652;2023-02-28T14:52:15;2.20;99.90
3752;DHT22;50827;47.014;7.652;2023-02-28T14:54:44;2.20;99.90
3752;DHT22;50827;47.014;7.652;2023-02-28T14:57:42;2.00;99.90
3752;DHT22;50827;47.014;7.652;2023-02-28T15:00:25;2.10;99.90
3752;DHT22;50827;47.014;7.652;2023-02-28T15:02:53;2.00;99.90
3752;DHT22;50827;47.014;7.652;2023-02-28T15:05:27;2.00;99.90
3752;DHT22;50827;47.014;7.652;2023-02-28T15:10:28;1.90;99.90
3752;DHT22;50827;47.014;7.652;2023-02-28T15:13:06;1.90;99.90
3752;DHT22;50827;47.014;7.652;2023-02-28T15:15:59;1.90;99.90
3752;DHT22;50827;47.014;7.652;2023-02-28T15:21:07;1.80;99.90
3752;DHT22;50827;47.014;7.652;2023-02-28T15:23:36;1.80;99.90
3752;DHT22;50827;47.014;7.652;2023-02-28T15:26:04;1.80;99.90
3752;DHT22;50827;47.014;7.652;2023-02-28T15:28:31;1.80;99.90
3752;DHT22;50827;47.014;7.652;2023-02-28T15:31:01;1.80;99.90
3752;DHT22;50827;47.014;7.652;2023-02-28T15:33:32;1.80;99.90
3752;DHT22;50827;47.014;7.652;2023-02-28T15:36:16;1.80;99.90
3752;DHT22;50827;47.014;7.652;2023-02-28T15:38:44;1.60;99.90
3752;DHT22;50827;47.014;7.652;2023-02-28T15:41:26;1.70;99.90
3752;DHT22;50827;47.014;7.652;2023-02-28T15:44:13;1.80;99.90
3752;DHT22;50827;47.014;7.652;2023-02-28T15:46:43;1.60;99.90
3752;DHT22;50827;47.014;7.652;2023-02-28T15:49:19;1.70;99.90
3752;DHT22;50827;47.014;7.652;2023-02-28T15:51:49;1.50;99.90
3752;DHT22;50827;47.014;7.652;2023-02-28T15:54:23;1.60;99.90
3752;DHT22;50827;47.014;7.652;2023-02-28T15:56:56;1.60;99.90
3752;DHT22;50827;47.014;7.652;2023-02-28T15:59:26;1.60;99.90
3752;DHT22;50827;47.014;7.652;2023-02-28T16:02:16;1.60;99.90
3752;DHT22;50827;47.014;7.652;2023-02-28T16:07:42;1.50;99.90
3752;DHT22;50827;47.014;7.652;2023-02-28T16:10:12;1.50;99.90
3752;DHT22;50827;47.014;7.652;2023-02-28T16:12:40;1.50;99.90
3752;DHT22;50827;47.014;7.652;2023-02-28T16:15:17;1.50;99.90
3752;DHT22;50827;47.014;7.652;2023-02-28T16:17:44;1.40;99.90
3752;DHT22;50827;47.014;7.652;2023-02-28T16:20:16;1.40;99.90
3752;DHT22;50827;47.014;7.652;2023-02-28T16:22:43;1.40;99.90
3752;DHT22;50827;47.014;7.652;2023-02-28T16:25:16;1.40;99.90
3752;DHT22;50827;47.014;7.652;2023-02-28T16:27:46;1.40;99.90
3752;DHT22;50827;47.014;7.652;2023-02-28T16:30:23;1.40;99.90
3752;DHT22;50827;47.014;7.652;2023-02-28T16:32:51;1.30;99.90
3752;DHT22;50827;47.014;7.652;2023-02-28T16:35:19;1.40;99.90
3752;DHT22;50827;47.014;7.652;2023-02-28T16:37:46;1.50;99.90
3752;DHT22;50827;47.014;7.652;2023-02-28T16:40:15;1.30;99.90
3752;DHT22;50827;47.014;7.652;2023-02-28T16:42:43;1.40;99.90
3752;DHT22;50827;47.014;7.652;2023-02-28T16:45:19;1.40;99.90
3752;DHT22;50827;47.014;7.652;2023-02-28T16:47:47;1.30;99.90
3752;DHT22;50827;47.014;7.652;2023-02-28T16:50:16;1.30;99.90
3752;DHT22;50827;47.014;7.652;2023-02-28T16:52:42;1.20;99.90
3752;DHT22;50827;47.014;7.652;2023-02-28T16:55:10;1.20;99.90
3752;DHT22;50827;47.014;7.652;2023-02-28T16:57:37;1.20;99.90
3752;DHT22;50827;47.014;7.652;2023-02-28T17:00:05;1.10;99.90
3752;DHT22;50827;47.014;7.652;2023-02-28T17:02:34;1.20;99.90
3752;DHT22;50827;47.014;7.652;2023-02-28T17:05:02;1.10;99.90
3752;DHT22;50827;47.014;7.652;2023-02-28T17:07:30;1.20;99.90
3752;DHT22;50827;47.014;7.652;2023-02-28T17:09:57;1.20;99.90
3752;DHT22;50827;47.014;7.652;2023-02-28T17:12:23;1.30;99.90
3752;DHT22;50827;47.014;7.652;2023-02-28T17:14:50;1.30;99.90
3752;DHT22;50827;47.014;7.652;2023-02-28T17:17:21;1.30;99.90
3752;DHT22;50827;47.014;7.652;2023-02-28T17:19:48;1.30;99.90
3752;DHT22;50827;47.014;7.652;2023-02-28T17:22:15;1.30;99.90
3752;DHT22;50827;47.014;7.652;2023-02-28T17:24:42;1.30;99.90
3752;DHT22;50827;47.014;7.652;2023-02-28T17:27:12;1.50;99.90
3752;DHT22;50827;47.014;7.652;2023-02-28T17:29:39;1.40;99.90
3752;DHT22;50827;47.014;7.652;2023-02-28T17:32:06;1.40;99.90
3752;DHT22;50827;47.014;7.652;2023-02-28T17:34:43;1.40;99.90
3752;DHT22;50827;47.014;7.652;2023-02-28T17:37:10;1.50;99.90
3752;DHT22;50827;47.014;7.652;2023-02-28T17:39:37;1.50;99.90
3752;DHT22;50827;47.014;7.652;2023-02-28T17:42:04;1.40;99.90
3752;DHT22;50827;47.014;7.652;2023-02-28T17:44:30;1.40;99.90
3752;DHT22;50827;47.014;7.652;2023-02-28T17:46:59;1.30;99.90
3752;DHT22;50827;47.014;7.652;2023-02-28T17:49:26;1.30;99.90
3752;DHT22;50827;47.014;7.652;2023-02-28T17:51:53;1.40;99.90
3752;DHT22;50827;47.014;7.652;2023-02-28T17:54:20;1.30;99.90
3752;DHT22;50827;47.014;7.652;2023-02-28T17:56:46;1.30;99.90
3752;DHT22;50827;47.014;7.652;2023-02-28T17:59:13;1.30;99.90
3752;DHT22;50827;47.014;7.652;2023-02-28T18:01:40;1.20;99.90
3752;DHT22;50827;47.014;7.652;2023-02-28T18:04:07;1.30;99.90
3752;DHT22;50827;47.014;7.652;2023-02-28T18:06:39;1.30;99.90
3752;DHT22;50827;47.014;7.652;2023-02-28T18:09:13;1.30;99.90
3752;DHT22;50827;47.014;7.652;2023-02-28T18:11:40;1.40;99.90
3752;DHT22;50827;47.014;7.652;2023-02-28T18:14:16;1.30;99.90
3752;DHT22;50827;47.014;7.652;2023-02-28T18:16:44;1.30;99.90
3752;DHT22;50827;47.014;7.652;2023-02-28T18:19:12;1.30;99.90
3752;DHT22;50827;47.014;7.652;2023-02-28T18:21:44;1.20;99.90
3752;DHT22;50827;47.014;7.652;2023-02-28T18:24:12;1.10;99.90
3752;DHT22;50827;47.014;7.652;2023-02-28T18:26:39;1.30;99.90
3752;DHT22;50827;47.014;7.652;2023-02-28T18:29:06;1.40;99.90
3752;DHT22;50827;47.014;7.652;2023-02-28T18:31:33;1.50;99.90
3752;DHT22;50827;47.014;7.652;2023-02-28T18:34:00;1.50;99.90
3752;DHT22;50827;47.014;7.652;2023-02-28T18:36:27;1.50;99.90